sensor_id;sensor_type;location;lat;lon;timestamp;temperature;humidity
30893;DHT22;17595;50.884;4.346;2023-07-24T00:00:27;20.60;99.90
30893;DHT22;17595;50.884;4.346;2023-07-24T00:02:53;20.40;99.90
30893;DHT22;17595;50.884;4.346;2023-07-24T00:05:19;20.40;99.90
30893;DHT22;17595;50.884;4.346;2023-07-24T00:07:44;20.40;99.90
30893;DHT22;17595;50.884;4.346;2023-07-24T00:10:10;20.50;99.90
30893;DHT22;17595;50.884;4.346;2023-07-24T00:12:36;20.50;99.90
30893;DHT22;17595;50.884;4.346;2023-07-24T00:15:01;20.60;99.90
30893;DHT22;17595;50.884;4.346;2023-07-24T00:17:27;20.70;99.90
30893;DHT22;17595;50.884;4.346;2023-07-24T00:19:52;20.70;99.90
30893;DHT22;17595;50.884;4.346;2023-07-24T00:22:18;20.80;99.90
30893;DHT22;17595;50.884;4.346;2023-07-24T00:24:44;20.90;99.90
30893;DHT22;17595;50.884;4.346;2023-07-24T00:27:09;21.00;99.90
30893;DHT22;17595;50.884;4.346;2023-07-24T00:29:35;21.00;99.90
30893;DHT22;17595;50.884;4.346;2023-07-24T00:32:00;21.00;99.90
30893;DHT22;17595;50.884;4.346;2023-07-24T00:34:26;20.90;99.90
30893;DHT22;17595;50.884;4.346;2023-07-24T00:36:52;20.90;99.90
30893;DHT22;17595;50.884;4.346;2023-07-24T00:39:17;20.90;99.90
30893;DHT22;17595;50.884;4.346;2023-07-24T00:41:43;20.80;99.90
30893;DHT22;17595;50.884;4.346;2023-07-24T00:44:09;20.80;99.90
30893;DHT22;17595;50.884;4.346;2023-07-24T00:46:35;20.80;99.90
30893;DHT22;17595;50.884;4.346;2023-07-24T00:49:02;20.90;99.90
30893;DHT22;17595;50.884;4.346;2023-07-24T00:51:28;21.00;99.90
30893;DHT22;17595;50.884;4.346;2023-07-24T00:54:01;21.00;99.90
30893;DHT22;17595;50.884;4.346;2023-07-24T00:56:28;21.00;99.90
30893;DHT22;17595;50.884;4.346;2023-07-24T00:58:54;21.10;99.90
30893;DHT22;17595;50.884;4.346;2023-07-24T01:01:25;21.00;99.90
30893;DHT22;17595;50.884;4.346;2023-07-24T01:03:51;21.00;99.90
30893;DHT22;17595;50.884;4.346;2023-07-24T01:06:17;21.00;99.90
30893;DHT22;17595;50.884;4.346;2023-07-24T01:08:43;21.00;99.90
30893;DHT22;17595;50.884;4.346;2023-07-24T01:12:02;21.00;99.90
30893;DHT22;17595;50.884;4.346;2023-07-24T01:14:21;21.20;99.90
30893;DHT22;17595;50.884;4.346;2023-07-24T01:16:48;21.10;99.90
30893;DHT22;17595;50.884;4.346;2023-07-24T01:19:37;21.10;99.90
30893;DHT22;17595;50.884;4.346;2023-07-24T01:22:32;21.10;99.90
30893;DHT22;17595;50.884;4.346;2023-07-24T01:25:23;21.00;99.90
30893;DHT22;17595;50.884;4.346;2023-07-24T01:27:52;21.00;99.90
30893;DHT22;17595;50.884;4.346;2023-07-24T01:30:19;21.00;99.90
30893;DHT22;17595;50.884;4.346;2023-07-24T01:32:45;20.90;99.90
30893;DHT22;17595;50.884;4.346;2023-07-24T01:35:11;20.60;99.90
30893;DHT22;17595;50.884;4.346;2023-07-24T01:37:37;20.20;99.90
30893;DHT22;17595;50.884;4.346;2023-07-24T01:40:06;20.20;99.90
30893;DHT22;17595;50.884;4.346;2023-07-24T01:42:34;20.20;99.90
30893;DHT22;17595;50.884;4.346;2023-07-24T01:45:00;20.10;99.90
30893;DHT22;17595;50.884;4.346;2023-07-24T01:47:25;19.90;99.90
30893;DHT22;17595;50.884;4.346;2023-07-24T01:49:51;19.90;99.90
30893;DHT22;17595;50.884;4.346;2023-07-24T01:52:17;19.90;99.90
30893;DHT22;17595;50.884;4.346;2023-07-24T01:54:42;19.80;99.90
30893;DHT22;17595;50.884;4.346;2023-07-24T01:57:08;19.70;99.90
30893;DHT22;17595;50.884;4.346;2023-07-24T01:59:34;19.60;99.90
30893;DHT22;17595;50.884;4.346;2023-07-24T02:01:59;19.50;99.90
30893;DHT22;17595;50.884;4.346;2023-07-24T02:04:25;19.50;99.90
30893;DHT22;17595;50.884;4.346;2023-07-24T02:06:50;19.50;99.90
30893;DHT22;17595;50.884;4.346;2023-07-24T02:09:18;19.50;99.90
30893;DHT22;17595;50.884;4.346;2023-07-24T02:11:44;19.40;99.90
30893;DHT22;17595;50.884;4.346;2023-07-24T02:14:12;19.50;99.90
30893;DHT22;17595;50.884;4.346;2023-07-24T02:16:38;19.50;99.90
30893;DHT22;17595;50.884;4.346;2023-07-24T02:19:03;19.40;99.90
30893;DHT22;17595;50.884;4.346;2023-07-24T02:21:29;19.30;99.90
30893;DHT22;17595;50.884;4.346;2023-07-24T02:23:55;19.30;99.90
30893;DHT22;17595;50.884;4.346;2023-07-24T02:26:20;19.40;99.90
30893;DHT22;17595;50.884;4.346;2023-07-24T02:28:46;19.40;99.90
30893;DHT22;17595;50.884;4.346;2023-07-24T02:31:11;19.20;99.90
30893;DHT22;17595;50.884;4.346;2023-07-24T02:33:37;19.20;99.90
30893;DHT22;17595;50.884;4.346;2023-07-24T02:36:03;19.30;99.90
30893;DHT22;17595;50.884;4.346;2023-07-24T02:38:28;19.40;99.90
30893;DHT22;17595;50.884;4.346;2023-07-24T02:40:54;19.40;99.90
30893;DHT22;17595;50.884;4.346;2023-07-24T02:43:20;19.30;99.90
30893;DHT22;17595;50.884;4.346;2023-07-24T02:45:45;19.30;99.90
30893;DHT22;17595;50.884;4.346;2023-07-24T02:48:11;19.30;99.90
30893;DHT22;17595;50.884;4.346;2023-07-24T02:50:36;19.40;99.90
30893;DHT22;17595;50.884;4.346;2023-07-24T02:53:02;19.50;99.90
30893;DHT22;17595;50.884;4.346;2023-07-24T02:55:28;19.60;99.90
30893;DHT22;17595;50.884;4.346;2023-07-24T02:57:53;19.60;99.90
30893;DHT22;17595;50.884;4.346;2023-07-24T03:00:19;19.50;99.90
30893;DHT22;17595;50.884;4.346;2023-07-24T03:02:45;19.50;99.90
30893;DHT22;17595;50.884;4.346;2023-07-24T03:05:10;19.40;99.90
30893;DHT22;17595;50.884;4.346;2023-07-24T03:07:36;19.30;99.90
30893;DHT22;17595;50.884;4.346;2023-07-24T03:10:03;19.10;99.90
30893;DHT22;17595;50.884;4.346;2023-07-24T03:12:28;18.70;99.90
30893;DHT22;17595;50.884;4.346;2023-07-24T03:14:54;18.50;99.90
30893;DHT22;17595;50.884;4.346;2023-07-24T03:17:19;18.40;99.90
30893;DHT22;17595;50.884;4.346;2023-07-24T03:19:45;18.30;99.90
30893;DHT22;17595;50.884;4.346;2023-07-24T03:22:11;18.30;99.90
30893;DHT22;17595;50.884;4.346;2023-07-24T03:24:36;18.40;99.90
30893;DHT22;17595;50.884;4.346;2023-07-24T03:27:02;18.40;99.90
30893;DHT22;17595;50.884;4.346;2023-07-24T03:29:28;18.30;99.90
30893;DHT22;17595;50.884;4.346;2023-07-24T03:31:53;18.20;99.90
30893;DHT22;17595;50.884;4.346;2023-07-24T03:34:19;18.30;99.90
30893;DHT22;17595;50.884;4.346;2023-07-24T03:36:45;18.20;99.90
30893;DHT22;17595;50.884;4.346;2023-07-24T03:39:10;18.20;99.90
30893;DHT22;17595;50.884;4.346;2023-07-24T03:41:37;18.20;99.90
30893;DHT22;17595;50.884;4.346;2023-07-24T03:44:03;18.10;99.90
30893;DHT22;17595;50.884;4.346;2023-07-24T03:46:28;18.20;99.90
30893;DHT22;17595;50.884;4.346;2023-07-24T03:48:54;18.10;99.90
30893;DHT22;17595;50.884;4.346;2023-07-24T03:51:20;18.00;99.90
30893;DHT22;17595;50.884;4.346;2023-07-24T03:53:46;18.00;99.90
30893;DHT22;17595;50.884;4.346;2023-07-24T03:56:11;18.00;99.90
30893;DHT22;17595;50.884;4.346;2023-07-24T03:58:37;18.10;99.90
30893;DHT22;17595;50.884;4.346;2023-07-24T04:01:04;18.00;99.90
30893;DHT22;17595;50.884;4.346;2023-07-24T04:03:30;18.00;99.90
30893;DHT22;17595;50.884;4.346;2023-07-24T04:05:56;18.20;99.90
30893;DHT22;17595;50.884;4.346;2023-07-24T04:08:21;18.10;99.90
30893;DHT22;17595;50.884;4.346;2023-07-24T04:10:47;18.00;99.90
30893;DHT22;17595;50.884;4.346;2023-07-24T04:13:12;18.00;99.90
30893;DHT22;17595;50.884;4.346;2023-07-24T04:15:38;18.00;99.90
30893;DHT22;17595;50.884;4.346;2023-07-24T04:18:05;17.90;99.90
30893;DHT22;17595;50.884;4.346;2023-07-24T04:20:30;17.90;99.90
30893;DHT22;17595;50.884;4.346;2023-07-24T04:22:56;17.90;99.90
30893;DHT22;17595;50.884;4.346;2023-07-24T04:25:21;17.90;99.90
30893;DHT22;17595;50.884;4.346;2023-07-24T04:27:47;18.00;99.90
30893;DHT22;17595;50.884;4.346;2023-07-24T04:30:12;18.10;99.90
30893;DHT22;17595;50.884;4.346;2023-07-24T04:32:38;18.30;99.90
30893;DHT22;17595;50.884;4.346;2023-07-24T04:35:04;18.40;99.90
30893;DHT22;17595;50.884;4.346;2023-07-24T04:37:30;18.50;99.90
30893;DHT22;17595;50.884;4.346;2023-07-24T04:39:55;18.40;99.90
30893;DHT22;17595;50.884;4.346;2023-07-24T04:42:21;18.40;99.90
30893;DHT22;17595;50.884;4.346;2023-07-24T04:44:46;18.60;99.90
30893;DHT22;17595;50.884;4.346;2023-07-24T04:47:12;18.70;99.90
30893;DHT22;17595;50.884;4.346;2023-07-24T04:49:37;18.90;99.90
30893;DHT22;17595;50.884;4.346;2023-07-24T04:52:03;19.00;99.90
30893;DHT22;17595;50.884;4.346;2023-07-24T04:54:29;19.10;99.90
30893;DHT22;17595;50.884;4.346;2023-07-24T04:56:54;19.20;99.90
30893;DHT22;17595;50.884;4.346;2023-07-24T04:59:20;19.30;99.90
30893;DHT22;17595;50.884;4.346;2023-07-24T05:01:46;19.30;99.90
30893;DHT22;17595;50.884;4.346;2023-07-24T05:04:11;19.30;99.90
30893;DHT22;17595;50.884;4.346;2023-07-24T05:06:37;19.30;99.90
30893;DHT22;17595;50.884;4.346;2023-07-24T05:09:04;19.40;99.90
30893;DHT22;17595;50.884;4.346;2023-07-24T05:11:29;19.40;99.90
30893;DHT22;17595;50.884;4.346;2023-07-24T05:13:55;19.40;99.90
30893;DHT22;17595;50.884;4.346;2023-07-24T05:16:20;19.40;99.90
30893;DHT22;17595;50.884;4.346;2023-07-24T05:18:46;19.40;99.90
30893;DHT22;17595;50.884;4.346;2023-07-24T05:21:12;19.50;99.90
30893;DHT22;17595;50.884;4.346;2023-07-24T05:23:37;19.60;99.90
30893;DHT22;17595;50.884;4.346;2023-07-24T05:26:03;19.60;99.90
30893;DHT22;17595;50.884;4.346;2023-07-24T05:28:30;19.60;99.90
30893;DHT22;17595;50.884;4.346;2023-07-24T05:31:00;19.60;99.90
30893;DHT22;17595;50.884;4.346;2023-07-24T05:33:27;19.70;99.90
30893;DHT22;17595;50.884;4.346;2023-07-24T05:36:00;19.80;99.90
30893;DHT22;17595;50.884;4.346;2023-07-24T05:38:26;19.90;99.90
30893;DHT22;17595;50.884;4.346;2023-07-24T05:41:00;19.90;99.90
30893;DHT22;17595;50.884;4.346;2023-07-24T05:43:26;20.00;99.90
30893;DHT22;17595;50.884;4.346;2023-07-24T05:45:52;20.00;99.90
30893;DHT22;17595;50.884;4.346;2023-07-24T05:48:18;20.00;99.90
30893;DHT22;17595;50.884;4.346;2023-07-24T05:50:44;19.90;99.90
30893;DHT22;17595;50.884;4.346;2023-07-24T05:53:10;19.90;99.90
30893;DHT22;17595;50.884;4.346;2023-07-24T05:55:35;20.00;99.90
30893;DHT22;17595;50.884;4.346;2023-07-24T05:58:01;20.10;99.90
30893;DHT22;17595;50.884;4.346;2023-07-24T06:00:27;20.20;99.90
30893;DHT22;17595;50.884;4.346;2023-07-24T06:02:53;20.30;99.90
30893;DHT22;17595;50.884;4.346;2023-07-24T06:05:19;20.30;99.90
30893;DHT22;17595;50.884;4.346;2023-07-24T06:07:48;20.40;99.90
30893;DHT22;17595;50.884;4.346;2023-07-24T06:10:13;20.40;99.90
30893;DHT22;17595;50.884;4.346;2023-07-24T06:12:39;20.40;99.90
30893;DHT22;17595;50.884;4.346;2023-07-24T06:15:05;20.40;99.90
30893;DHT22;17595;50.884;4.346;2023-07-24T06:17:31;20.40;99.90
30893;DHT22;17595;50.884;4.346;2023-07-24T06:19:57;20.40;99.90
30893;DHT22;17595;50.884;4.346;2023-07-24T06:22:23;20.30;99.90
30893;DHT22;17595;50.884;4.346;2023-07-24T06:24:48;20.20;99.90
30893;DHT22;17595;50.884;4.346;2023-07-24T06:27:14;20.20;99.90
30893;DHT22;17595;50.884;4.346;2023-07-24T06:29:40;20.20;99.90
30893;DHT22;17595;50.884;4.346;2023-07-24T06:32:06;20.30;99.90
30893;DHT22;17595;50.884;4.346;2023-07-24T06:34:32;20.30;99.90
30893;DHT22;17595;50.884;4.346;2023-07-24T06:36:57;20.40;99.90
30893;DHT22;17595;50.884;4.346;2023-07-24T06:39:23;20.20;99.90
30893;DHT22;17595;50.884;4.346;2023-07-24T06:41:50;20.30;99.90
30893;DHT22;17595;50.884;4.346;2023-07-24T06:44:16;20.40;99.90
30893;DHT22;17595;50.884;4.346;2023-07-24T06:46:41;20.30;99.90
30893;DHT22;17595;50.884;4.346;2023-07-24T06:49:07;20.40;99.90
30893;DHT22;17595;50.884;4.346;2023-07-24T06:51:33;20.40;99.90
30893;DHT22;17595;50.884;4.346;2023-07-24T06:53:58;20.40;99.90
30893;DHT22;17595;50.884;4.346;2023-07-24T06:56:24;20.50;99.90
30893;DHT22;17595;50.884;4.346;2023-07-24T06:58:49;20.70;99.90
30893;DHT22;17595;50.884;4.346;2023-07-24T07:01:15;20.80;99.90
30893;DHT22;17595;50.884;4.346;2023-07-24T07:03:40;20.90;99.90
30893;DHT22;17595;50.884;4.346;2023-07-24T07:06:06;20.90;99.90
30893;DHT22;17595;50.884;4.346;2023-07-24T07:08:32;20.80;99.90
30893;DHT22;17595;50.884;4.346;2023-07-24T07:11:01;20.80;99.90
30893;DHT22;17595;50.884;4.346;2023-07-24T07:13:27;20.40;99.90
30893;DHT22;17595;50.884;4.346;2023-07-24T07:15:53;20.30;99.90
30893;DHT22;17595;50.884;4.346;2023-07-24T07:18:18;20.20;99.90
30893;DHT22;17595;50.884;4.346;2023-07-24T07:20:48;19.80;99.90
30893;DHT22;17595;50.884;4.346;2023-07-24T07:23:14;19.80;99.90
30893;DHT22;17595;50.884;4.346;2023-07-24T07:25:40;19.80;99.90
30893;DHT22;17595;50.884;4.346;2023-07-24T07:28:06;19.70;99.90
30893;DHT22;17595;50.884;4.346;2023-07-24T07:30:31;19.50;99.90
30893;DHT22;17595;50.884;4.346;2023-07-24T07:32:57;19.70;99.90
30893;DHT22;17595;50.884;4.346;2023-07-24T07:35:23;19.80;99.90
30893;DHT22;17595;50.884;4.346;2023-07-24T07:37:48;20.00;99.90
30893;DHT22;17595;50.884;4.346;2023-07-24T07:40:14;20.20;99.90
30893;DHT22;17595;50.884;4.346;2023-07-24T07:42:39;20.30;99.90
30893;DHT22;17595;50.884;4.346;2023-07-24T07:45:05;20.10;99.90
30893;DHT22;17595;50.884;4.346;2023-07-24T07:47:31;19.90;99.90
30893;DHT22;17595;50.884;4.346;2023-07-24T07:49:57;20.00;99.90
30893;DHT22;17595;50.884;4.346;2023-07-24T07:52:22;20.30;99.90
30893;DHT22;17595;50.884;4.346;2023-07-24T07:54:48;20.50;99.90
30893;DHT22;17595;50.884;4.346;2023-07-24T07:57:14;20.30;99.90
30893;DHT22;17595;50.884;4.346;2023-07-24T07:59:40;20.60;99.90
30893;DHT22;17595;50.884;4.346;2023-07-24T08:02:06;20.40;99.90
30893;DHT22;17595;50.884;4.346;2023-07-24T08:04:32;20.60;99.90
30893;DHT22;17595;50.884;4.346;2023-07-24T08:06:57;20.50;99.90
30893;DHT22;17595;50.884;4.346;2023-07-24T08:09:23;20.40;99.90
30893;DHT22;17595;50.884;4.346;2023-07-24T08:11:50;20.80;99.90
30893;DHT22;17595;50.884;4.346;2023-07-24T08:14:17;20.70;99.90
30893;DHT22;17595;50.884;4.346;2023-07-24T08:16:43;20.60;99.90
30893;DHT22;17595;50.884;4.346;2023-07-24T08:19:08;20.70;99.90
30893;DHT22;17595;50.884;4.346;2023-07-24T08:21:34;20.60;99.90
30893;DHT22;17595;50.884;4.346;2023-07-24T08:23:59;20.60;99.90
30893;DHT22;17595;50.884;4.346;2023-07-24T08:26:27;20.30;99.90
30893;DHT22;17595;50.884;4.346;2023-07-24T08:28:53;20.50;99.90
30893;DHT22;17595;50.884;4.346;2023-07-24T08:31:19;20.40;99.90
30893;DHT22;17595;50.884;4.346;2023-07-24T08:33:44;20.00;99.90
30893;DHT22;17595;50.884;4.346;2023-07-24T08:36:10;19.90;99.90
30893;DHT22;17595;50.884;4.346;2023-07-24T08:38:38;20.30;99.90
30893;DHT22;17595;50.884;4.346;2023-07-24T08:41:12;20.60;99.90
30893;DHT22;17595;50.884;4.346;2023-07-24T08:43:39;20.40;99.90
30893;DHT22;17595;50.884;4.346;2023-07-24T08:46:05;20.30;99.90
30893;DHT22;17595;50.884;4.346;2023-07-24T08:48:33;20.20;99.90
30893;DHT22;17595;50.884;4.346;2023-07-24T08:51:05;20.40;99.90
30893;DHT22;17595;50.884;4.346;2023-07-24T08:53:36;20.30;99.90
30893;DHT22;17595;50.884;4.346;2023-07-24T08:56:06;20.40;99.90
30893;DHT22;17595;50.884;4.346;2023-07-24T08:58:33;20.40;99.90
30893;DHT22;17595;50.884;4.346;2023-07-24T09:01:00;19.80;99.90
30893;DHT22;17595;50.884;4.346;2023-07-24T09:03:26;19.50;99.90
30893;DHT22;17595;50.884;4.346;2023-07-24T09:05:53;19.70;99.90
30893;DHT22;17595;50.884;4.346;2023-07-24T09:08:39;20.00;99.90
30893;DHT22;17595;50.884;4.346;2023-07-24T09:11:06;20.20;99.90
30893;DHT22;17595;50.884;4.346;2023-07-24T09:13:33;20.40;99.90
30893;DHT22;17595;50.884;4.346;2023-07-24T09:15:59;20.50;99.90
30893;DHT22;17595;50.884;4.346;2023-07-24T09:18:25;20.60;99.90
30893;DHT22;17595;50.884;4.346;2023-07-24T09:20:50;20.70;99.90
30893;DHT22;17595;50.884;4.346;2023-07-24T09:23:28;20.70;99.90
30893;DHT22;17595;50.884;4.346;2023-07-24T09:25:54;20.60;99.90
30893;DHT22;17595;50.884;4.346;2023-07-24T09:28:19;20.60;99.90
30893;DHT22;17595;50.884;4.346;2023-07-24T09:30:54;20.60;99.90
30893;DHT22;17595;50.884;4.346;2023-07-24T09:33:21;20.70;99.90
30893;DHT22;17595;50.884;4.346;2023-07-24T09:35:57;20.40;99.90
30893;DHT22;17595;50.884;4.346;2023-07-24T09:38:23;20.60;99.90
30893;DHT22;17595;50.884;4.346;2023-07-24T09:40:49;20.80;99.90
30893;DHT22;17595;50.884;4.346;2023-07-24T09:43:20;21.00;99.90
30893;DHT22;17595;50.884;4.346;2023-07-24T09:45:46;21.00;99.90
30893;DHT22;17595;50.884;4.346;2023-07-24T09:48:13;21.10;99.90
30893;DHT22;17595;50.884;4.346;2023-07-24T09:50:41;21.20;99.90
30893;DHT22;17595;50.884;4.346;2023-07-24T09:53:25;21.30;99.90
30893;DHT22;17595;50.884;4.346;2023-07-24T09:56:03;21.20;99.90
30893;DHT22;17595;50.884;4.346;2023-07-24T09:58:31;21.10;99.90
30893;DHT22;17595;50.884;4.346;2023-07-24T10:00:57;21.20;99.90
30893;DHT22;17595;50.884;4.346;2023-07-24T10:03:23;21.20;99.90
30893;DHT22;17595;50.884;4.346;2023-07-24T10:05:49;21.40;99.90
30893;DHT22;17595;50.884;4.346;2023-07-24T10:08:18;21.50;99.90
30893;DHT22;17595;50.884;4.346;2023-07-24T10:10:44;21.70;99.90
30893;DHT22;17595;50.884;4.346;2023-07-24T10:13:11;21.90;99.90
30893;DHT22;17595;50.884;4.346;2023-07-24T10:15:39;22.10;99.90
30893;DHT22;17595;50.884;4.346;2023-07-24T10:18:09;22.10;99.90
30893;DHT22;17595;50.884;4.346;2023-07-24T10:23:05;22.10;99.90
30893;DHT22;17595;50.884;4.346;2023-07-24T10:25:32;22.10;99.90
30893;DHT22;17595;50.884;4.346;2023-07-24T10:28:06;22.30;99.90
30893;DHT22;17595;50.884;4.346;2023-07-24T10:30:39;22.30;99.90
30893;DHT22;17595;50.884;4.346;2023-07-24T10:33:12;22.30;99.90
30893;DHT22;17595;50.884;4.346;2023-07-24T10:35:52;22.00;99.90
30893;DHT22;17595;50.884;4.346;2023-07-24T10:38:18;21.80;99.90
30893;DHT22;17595;50.884;4.346;2023-07-24T10:40:46;21.30;99.90
30893;DHT22;17595;50.884;4.346;2023-07-24T10:43:14;21.20;99.90
30893;DHT22;17595;50.884;4.346;2023-07-24T10:45:53;20.60;99.90
30893;DHT22;17595;50.884;4.346;2023-07-24T10:48:21;20.60;99.90
30893;DHT22;17595;50.884;4.346;2023-07-24T10:50:48;21.10;99.90
30893;DHT22;17595;50.884;4.346;2023-07-24T10:53:16;21.40;99.90
30893;DHT22;17595;50.884;4.346;2023-07-24T10:55:43;21.80;99.90
30893;DHT22;17595;50.884;4.346;2023-07-24T10:58:09;22.10;99.90
30893;DHT22;17595;50.884;4.346;2023-07-24T11:00:34;22.00;99.90
30893;DHT22;17595;50.884;4.346;2023-07-24T11:03:01;22.20;99.90
30893;DHT22;17595;50.884;4.346;2023-07-24T11:05:26;22.10;99.90
30893;DHT22;17595;50.884;4.346;2023-07-24T11:07:52;21.50;99.90
30893;DHT22;17595;50.884;4.346;2023-07-24T11:10:19;21.40;99.90
30893;DHT22;17595;50.884;4.346;2023-07-24T11:12:45;21.00;99.90
30893;DHT22;17595;50.884;4.346;2023-07-24T11:15:12;21.00;99.90
30893;DHT22;17595;50.884;4.346;2023-07-24T11:17:39;21.20;99.90
30893;DHT22;17595;50.884;4.346;2023-07-24T11:20:15;21.30;99.90
30893;DHT22;17595;50.884;4.346;2023-07-24T11:22:43;21.70;99.90
30893;DHT22;17595;50.884;4.346;2023-07-24T11:25:10;22.10;99.90
30893;DHT22;17595;50.884;4.346;2023-07-24T11:27:43;22.30;99.90
30893;DHT22;17595;50.884;4.346;2023-07-24T11:30:18;22.60;99.90
30893;DHT22;17595;50.884;4.346;2023-07-24T11:32:44;22.20;99.90
30893;DHT22;17595;50.884;4.346;2023-07-24T11:35:11;22.00;99.90
30893;DHT22;17595;50.884;4.346;2023-07-24T11:37:37;21.90;99.90
30893;DHT22;17595;50.884;4.346;2023-07-24T11:40:04;22.30;99.90
30893;DHT22;17595;50.884;4.346;2023-07-24T11:42:37;22.80;99.90
30893;DHT22;17595;50.884;4.346;2023-07-24T11:45:03;22.80;99.90
30893;DHT22;17595;50.884;4.346;2023-07-24T11:47:28;23.10;99.90
30893;DHT22;17595;50.884;4.346;2023-07-24T11:49:59;23.40;99.90
30893;DHT22;17595;50.884;4.346;2023-07-24T11:52:25;23.60;99.90
30893;DHT22;17595;50.884;4.346;2023-07-24T11:54:58;23.80;99.90
30893;DHT22;17595;50.884;4.346;2023-07-24T11:57:29;23.90;99.90
30893;DHT22;17595;50.884;4.346;2023-07-24T11:59:55;23.90;99.90
30893;DHT22;17595;50.884;4.346;2023-07-24T12:02:25;23.90;99.90
30893;DHT22;17595;50.884;4.346;2023-07-24T12:04:55;23.80;99.90
30893;DHT22;17595;50.884;4.346;2023-07-24T12:07:28;23.30;99.90
30893;DHT22;17595;50.884;4.346;2023-07-24T12:09:54;23.00;99.90
30893;DHT22;17595;50.884;4.346;2023-07-24T12:12:20;23.20;99.90
30893;DHT22;17595;50.884;4.346;2023-07-24T12:14:45;23.40;99.90
30893;DHT22;17595;50.884;4.346;2023-07-24T12:17:11;23.70;99.90
30893;DHT22;17595;50.884;4.346;2023-07-24T12:19:39;23.70;99.90
30893;DHT22;17595;50.884;4.346;2023-07-24T12:22:05;24.00;99.90
30893;DHT22;17595;50.884;4.346;2023-07-24T12:24:30;24.20;99.90
30893;DHT22;17595;50.884;4.346;2023-07-24T12:26:56;24.00;99.90
30893;DHT22;17595;50.884;4.346;2023-07-24T12:29:22;23.90;99.90
30893;DHT22;17595;50.884;4.346;2023-07-24T12:31:47;23.50;99.90
30893;DHT22;17595;50.884;4.346;2023-07-24T12:34:13;23.40;99.90
30893;DHT22;17595;50.884;4.346;2023-07-24T12:36:38;23.70;99.90
30893;DHT22;17595;50.884;4.346;2023-07-24T12:39:04;24.00;99.90
30893;DHT22;17595;50.884;4.346;2023-07-24T12:41:30;23.70;99.90
30893;DHT22;17595;50.884;4.346;2023-07-24T12:43:55;23.60;99.90
30893;DHT22;17595;50.884;4.346;2023-07-24T12:46:21;23.40;99.90
30893;DHT22;17595;50.884;4.346;2023-07-24T12:48:47;23.60;99.90
30893;DHT22;17595;50.884;4.346;2023-07-24T12:51:12;23.70;99.90
30893;DHT22;17595;50.884;4.346;2023-07-24T12:53:38;24.10;99.90
30893;DHT22;17595;50.884;4.346;2023-07-24T12:56:04;24.20;99.90
30893;DHT22;17595;50.884;4.346;2023-07-24T12:58:29;24.50;99.90
30893;DHT22;17595;50.884;4.346;2023-07-24T13:00:55;24.00;99.90
30893;DHT22;17595;50.884;4.346;2023-07-24T13:03:20;23.70;99.90
30893;DHT22;17595;50.884;4.346;2023-07-24T13:05:47;23.30;99.90
30893;DHT22;17595;50.884;4.346;2023-07-24T13:08:12;23.20;99.90
30893;DHT22;17595;50.884;4.346;2023-07-24T13:10:38;22.50;99.90
30893;DHT22;17595;50.884;4.346;2023-07-24T13:13:04;22.30;99.90
30893;DHT22;17595;50.884;4.346;2023-07-24T13:15:29;22.40;99.90
30893;DHT22;17595;50.884;4.346;2023-07-24T13:17:57;22.90;99.90
30893;DHT22;17595;50.884;4.346;2023-07-24T13:20:24;23.20;99.90
30893;DHT22;17595;50.884;4.346;2023-07-24T13:22:49;22.90;99.90
30893;DHT22;17595;50.884;4.346;2023-07-24T13:25:15;23.30;99.90
30893;DHT22;17595;50.884;4.346;2023-07-24T13:27:40;23.10;99.90
30893;DHT22;17595;50.884;4.346;2023-07-24T13:30:06;23.50;99.90
30893;DHT22;17595;50.884;4.346;2023-07-24T13:32:32;23.30;99.90
30893;DHT22;17595;50.884;4.346;2023-07-24T13:34:58;23.00;99.90
30893;DHT22;17595;50.884;4.346;2023-07-24T13:37:25;23.00;99.90
30893;DHT22;17595;50.884;4.346;2023-07-24T13:39:51;23.00;99.90
30893;DHT22;17595;50.884;4.346;2023-07-24T13:42:17;22.90;99.90
30893;DHT22;17595;50.884;4.346;2023-07-24T13:44:42;23.40;99.90
30893;DHT22;17595;50.884;4.346;2023-07-24T13:47:08;23.90;99.90
30893;DHT22;17595;50.884;4.346;2023-07-24T13:49:33;24.30;99.90
30893;DHT22;17595;50.884;4.346;2023-07-24T13:51:59;24.60;99.90
30893;DHT22;17595;50.884;4.346;2023-07-24T13:54:25;24.60;99.90
30893;DHT22;17595;50.884;4.346;2023-07-24T13:56:50;24.50;99.90
30893;DHT22;17595;50.884;4.346;2023-07-24T13:59:16;24.10;99.90
30893;DHT22;17595;50.884;4.346;2023-07-24T14:01:41;24.10;99.90
30893;DHT22;17595;50.884;4.346;2023-07-24T14:04:07;24.30;99.90
30893;DHT22;17595;50.884;4.346;2023-07-24T14:06:33;24.30;99.90
30893;DHT22;17595;50.884;4.346;2023-07-24T14:08:58;24.70;99.90
30893;DHT22;17595;50.884;4.346;2023-07-24T14:11:24;24.60;99.90
30893;DHT22;17595;50.884;4.346;2023-07-24T14:13:52;24.20;99.90
30893;DHT22;17595;50.884;4.346;2023-07-24T14:16:17;23.50;99.90
30893;DHT22;17595;50.884;4.346;2023-07-24T14:18:43;23.00;99.90
30893;DHT22;17595;50.884;4.346;2023-07-24T14:21:08;23.10;99.90
30893;DHT22;17595;50.884;4.346;2023-07-24T14:23:35;23.20;99.90
30893;DHT22;17595;50.884;4.346;2023-07-24T14:26:00;23.70;99.90
30893;DHT22;17595;50.884;4.346;2023-07-24T14:28:26;23.80;99.90
30893;DHT22;17595;50.884;4.346;2023-07-24T14:30:51;23.90;99.90
30893;DHT22;17595;50.884;4.346;2023-07-24T14:33:17;23.90;99.90
30893;DHT22;17595;50.884;4.346;2023-07-24T14:35:43;23.30;99.90
30893;DHT22;17595;50.884;4.346;2023-07-24T14:38:09;22.40;99.90
30893;DHT22;17595;50.884;4.346;2023-07-24T14:40:34;21.70;99.90
30893;DHT22;17595;50.884;4.346;2023-07-24T14:43:00;21.20;99.90
30893;DHT22;17595;50.884;4.346;2023-07-24T14:45:25;21.00;99.90
30893;DHT22;17595;50.884;4.346;2023-07-24T14:47:51;20.70;99.90
30893;DHT22;17595;50.884;4.346;2023-07-24T14:50:17;20.50;99.90
30893;DHT22;17595;50.884;4.346;2023-07-24T14:52:42;20.50;99.90
30893;DHT22;17595;50.884;4.346;2023-07-24T14:55:09;20.50;99.90
30893;DHT22;17595;50.884;4.346;2023-07-24T14:57:35;20.30;99.90
30893;DHT22;17595;50.884;4.346;2023-07-24T15:00:01;20.00;99.90
30893;DHT22;17595;50.884;4.346;2023-07-24T15:02:26;19.70;99.90
30893;DHT22;17595;50.884;4.346;2023-07-24T15:04:52;19.20;99.90
30893;DHT22;17595;50.884;4.346;2023-07-24T15:07:18;18.80;99.90
30893;DHT22;17595;50.884;4.346;2023-07-24T15:09:43;18.50;99.90
30893;DHT22;17595;50.884;4.346;2023-07-24T15:12:09;18.40;99.90
30893;DHT22;17595;50.884;4.346;2023-07-24T15:14:34;18.30;99.90
30893;DHT22;17595;50.884;4.346;2023-07-24T15:17:00;18.30;99.90
30893;DHT22;17595;50.884;4.346;2023-07-24T15:19:26;18.20;99.90
30893;DHT22;17595;50.884;4.346;2023-07-24T15:21:51;18.20;99.90
30893;DHT22;17595;50.884;4.346;2023-07-24T15:24:17;18.40;99.90
30893;DHT22;17595;50.884;4.346;2023-07-24T15:26:44;18.70;99.90
30893;DHT22;17595;50.884;4.346;2023-07-24T15:29:10;18.80;99.90